Time,TemperatureF,DewpointF,PressureIn,WindDirection,WindDirectionDegrees,WindSpeedMPH,WindSpeedGustMPH,Humidity,HourlyPrecipIn,Conditions,Clouds,dailyrainin,SolarRadiationWatts/m^2,SoftwareType,DateUTC
2013-01-16 00:01:00,23.0,16.0,-100.00,WNW,283,3.0,10.0,74,0.00,,,0.00,0.000000,,2013-01-16 05:01:00,
2013-01-16 00:33:00,23.0,16.0,-100.00,WNW,283,3.0,10.0,74,0.00,,,0.00,0.000000,,2013-01-16 05:33:00,
2013-01-16 00:42:00,23.0,16.0,-100.00,WNW,283,3.0,10.0,74,0.00,,,0.00,0.000000,,2013-01-16 05:42:00,
2013-01-16 00:53:00,23.0,16.0,-100.00,WNW,283,3.0,10.0,74,0.00,,,0.00,0.000000,,2013-01-16 05:53:00,
2013-01-16 01:01:00,23.0,16.0,-100.00,West,267,1.0,5.0,74,0.00,,,0.00,0.000000,,2013-01-16 06:01:00,
2013-01-16 01:22:00,23.0,16.0,-100.00,West,267,1.0,5.0,74,0.00,,,0.00,0.000000,,2013-01-16 06:22:00,
2013-01-16 01:33:00,23.0,16.0,-100.00,West,267,1.0,5.0,74,0.00,,,0.00,0.000000,,2013-01-16 06:33:00,
2013-01-16 01:43:00,23.0,16.0,-100.00,West,267,1.0,5.0,74,0.00,,,0.00,0.000000,,2013-01-16 06:43:00,
2013-01-16 01:53:00,23.0,16.0,-100.00,West,267,1.0,5.0,74,0.00,,,0.00,0.000000,,2013-01-16 06:53:00,
2013-01-16 02:01:00,23.0,17.0,-100.00,East,85,0.0,2.0,76,0.00,,,0.00,0.000000,,2013-01-16 07:01:00,
2013-01-16 02:22:00,23.0,17.0,-100.00,East,85,0.0,2.0,76,0.00,,,0.00,0.000000,,2013-01-16 07:22:00,
2013-01-16 02:33:00,23.0,17.0,-100.00,East,85,0.0,2.0,76,0.00,,,0.00,0.000000,,2013-01-16 07:33:00,
2013-01-16 02:42:00,23.0,17.0,-100.00,East,85,0.0,2.0,76,0.00,,,0.00,0.000000,,2013-01-16 07:42:00,
2013-01-16 02:52:00,23.0,17.0,-100.00,East,85,0.0,2.0,76,0.00,,,0.00,0.000000,,2013-01-16 07:52:00,
2013-01-16 03:01:00,23.0,16.0,-100.00,SSE,160,1.0,4.0,75,0.00,,,0.00,0.000000,,2013-01-16 08:01:00,
2013-01-16 03:23:00,23.0,16.0,-100.00,SSE,160,1.0,4.0,75,0.00,,,0.00,0.000000,,2013-01-16 08:23:00,
2013-01-16 03:33:00,23.0,16.0,-100.00,SSE,160,1.0,4.0,75,0.00,,,0.00,0.000000,,2013-01-16 08:33:00,
2013-01-16 03:42:00,23.0,16.0,-100.00,SSE,160,1.0,4.0,75,0.00,,,0.00,0.000000,,2013-01-16 08:42:00,
2013-01-16 03:53:00,23.0,16.0,-100.00,SSE,160,1.0,4.0,75,0.00,,,0.00,0.000000,,2013-01-16 08:53:00,
2013-01-16 04:01:00,23.0,15.0,-100.00,ENE,58,2.0,6.0,70,0.00,,,0.00,0.000000,,2013-01-16 09:01:00,
2013-01-16 04:33:00,23.0,15.0,-100.00,ENE,58,2.0,6.0,70,0.00,,,0.00,0.000000,,2013-01-16 09:33:00,
2013-01-16 04:43:00,23.0,15.0,-100.00,ENE,58,2.0,6.0,70,0.00,,,0.00,0.000000,,2013-01-16 09:43:00,
2013-01-16 04:53:00,23.0,15.0,-100.00,ENE,58,2.0,6.0,70,0.00,,,0.00,0.000000,,2013-01-16 09:53:00,
2013-01-16 05:01:00,23.0,14.0,-100.00,ENE,67,3.0,7.0,69,0.00,,,0.00,0.000000,,2013-01-16 10:01:00,
2013-01-16 05:33:00,23.0,14.0,-100.00,ENE,67,3.0,7.0,69,0.00,,,0.00,0.000000,,2013-01-16 10:33:00,
2013-01-16 05:43:00,23.0,14.0,-100.00,ENE,67,3.0,7.0,69,0.00,,,0.00,0.000000,,2013-01-16 10:43:00,
2013-01-16 05:53:00,23.0,14.0,-100.00,ENE,67,3.0,7.0,69,0.00,,,0.00,0.000000,,2013-01-16 10:53:00,
2013-01-16 06:01:00,23.0,15.0,-100.00,WSW,252,0.0,6.0,71,0.00,,,0.00,0.000000,,2013-01-16 11:01:00,
2013-01-16 06:33:00,23.0,15.0,-100.00,WSW,252,0.0,6.0,71,0.00,,,0.00,0.000000,,2013-01-16 11:33:00,
2013-01-16 06:43:00,23.0,15.0,-100.00,WSW,252,0.0,6.0,71,0.00,,,0.00,0.000000,,2013-01-16 11:43:00,
2013-01-16 06:53:00,23.0,15.0,-100.00,WSW,252,0.0,6.0,71,0.00,,,0.00,0.000000,,2013-01-16 11:53:00,
2013-01-16 07:01:00,23.0,17.0,-100.00,WNW,282,2.0,5.0,77,0.00,,,0.00,0.000000,,2013-01-16 12:01:00,
2013-01-16 07:33:00,23.0,17.0,-100.00,WNW,282,2.0,5.0,77,0.00,,,0.00,0.000000,,2013-01-16 12:33:00,
2013-01-16 07:43:00,23.0,17.0,-100.00,WNW,282,2.0,5.0,77,0.00,,,0.00,0.000000,,2013-01-16 12:43:00,
2013-01-16 07:53:00,23.0,17.0,-100.00,WNW,282,2.0,5.0,77,0.00,,,0.00,0.000000,,2013-01-16 12:53:00,
2013-01-16 08:01:00,23.0,18.0,-100.00,North,358,1.0,4.0,80,0.00,,,0.00,1.000000,,2013-01-16 13:01:00,
2013-01-16 08:33:00,23.0,18.0,-100.00,North,358,1.0,4.0,80,0.00,,,0.00,1.000000,,2013-01-16 13:33:00,
2013-01-16 08:43:00,23.0,18.0,-100.00,North,358,1.0,4.0,80,0.00,,,0.00,1.000000,,2013-01-16 13:43:00,
2013-01-16 08:53:00,23.0,18.0,-100.00,North,358,1.0,4.0,80,0.00,,,0.00,1.000000,,2013-01-16 13:53:00,
2013-01-16 09:01:00,24.0,18.0,-100.00,SSW,198,0.0,2.0,79,0.00,,,0.00,14.000000,,2013-01-16 14:01:00,
2013-01-16 09:33:00,24.0,18.0,-100.00,SSW,198,0.0,2.0,79,0.00,,,0.00,14.000000,,2013-01-16 14:33:00,
2013-01-16 09:43:00,24.0,18.0,-100.00,SSW,198,0.0,2.0,79,0.00,,,0.00,14.000000,,2013-01-16 14:43:00,
2013-01-16 09:53:00,24.0,18.0,-100.00,SSW,198,0.0,2.0,79,0.00,,,0.00,14.000000,,2013-01-16 14:53:00,
2013-01-16 10:01:00,24.0,20.0,-100.00,West,261,1.0,2.0,83,0.00,,,0.00,32.000000,,2013-01-16 15:01:00,
2013-01-16 10:33:00,24.0,20.0,-100.00,West,261,1.0,2.0,83,0.00,,,0.00,32.000000,,2013-01-16 15:33:00,
2013-01-16 10:43:00,24.0,20.0,-100.00,West,261,1.0,2.0,83,0.00,,,0.00,32.000000,,2013-01-16 15:43:00,
2013-01-16 10:53:00,24.0,20.0,-100.00,West,261,1.0,2.0,83,0.00,,,0.00,32.000000,,2013-01-16 15:53:00,
2013-01-16 11:01:00,25.0,21.0,-100.00,NE,46,0.0,3.0,86,0.00,,,0.00,49.000000,,2013-01-16 16:01:00,
2013-01-16 11:33:00,25.0,21.0,-100.00,NE,46,0.0,3.0,86,0.00,,,0.00,49.000000,,2013-01-16 16:33:00,
2013-01-16 11:43:00,25.0,21.0,-100.00,NE,46,0.0,3.0,86,0.00,,,0.00,49.000000,,2013-01-16 16:43:00,
2013-01-16 11:53:00,25.0,21.0,-100.00,NE,46,0.0,3.0,86,0.00,,,0.00,49.000000,,2013-01-16 16:53:00,
2013-01-16 12:01:00,28.0,23.0,-100.00,East,100,2.0,4.0,82,0.00,,,0.00,48.000000,,2013-01-16 17:01:00,
2013-01-16 12:33:00,28.0,23.0,-100.00,East,100,2.0,4.0,82,0.00,,,0.00,48.000000,,2013-01-16 17:33:00,
2013-01-16 12:44:00,28.0,23.0,-100.00,East,100,2.0,4.0,82,0.00,,,0.00,48.000000,,2013-01-16 17:44:00,
2013-01-16 12:53:00,28.0,23.0,-100.00,East,100,2.0,4.0,82,0.00,,,0.00,48.000000,,2013-01-16 17:53:00,
2013-01-16 13:01:00,29.0,25.0,-100.00,NE,42,0.0,3.0,84,0.00,,,0.00,43.000000,,2013-01-16 18:01:00,
2013-01-16 13:33:00,29.0,25.0,-100.00,NE,42,0.0,3.0,84,0.00,,,0.00,43.000000,,2013-01-16 18:33:00,
2013-01-16 13:43:00,29.0,25.0,-100.00,NE,42,0.0,3.0,84,0.00,,,0.00,43.000000,,2013-01-16 18:43:00,
2013-01-16 13:53:00,29.0,25.0,-100.00,NE,42,0.0,3.0,84,0.00,,,0.00,43.000000,,2013-01-16 18:53:00,
2013-01-16 14:01:00,30.0,25.0,-100.00,East,100,1.0,6.0,82,0.00,,,0.00,43.000000,,2013-01-16 19:01:00,
2013-01-16 14:33:00,30.0,25.0,-100.00,East,100,1.0,6.0,82,0.00,,,0.00,43.000000,,2013-01-16 19:33:00,
2013-01-16 14:43:00,30.0,25.0,-100.00,East,100,1.0,6.0,82,0.00,,,0.00,43.000000,,2013-01-16 19:43:00,
2013-01-16 14:53:00,30.0,25.0,-100.00,East,100,1.0,6.0,82,0.00,,,0.00,43.000000,,2013-01-16 19:53:00,
2013-01-16 15:01:00,30.0,25.0,-100.00,WNW,286,3.0,9.0,80,0.00,,,0.00,39.000000,,2013-01-16 20:01:00,
2013-01-16 15:23:00,30.0,25.0,-100.00,WNW,286,3.0,9.0,80,0.00,,,0.00,39.000000,,2013-01-16 20:23:00,
2013-01-16 15:33:00,30.0,25.0,-100.00,WNW,286,3.0,9.0,80,0.00,,,0.00,39.000000,,2013-01-16 20:33:00,
2013-01-16 15:43:00,30.0,25.0,-100.00,WNW,286,3.0,9.0,80,0.00,,,0.00,39.000000,,2013-01-16 20:43:00,
2013-01-16 15:53:00,30.0,25.0,-100.00,WNW,286,3.0,9.0,80,0.00,,,0.00,39.000000,,2013-01-16 20:53:00,
2013-01-16 16:01:00,29.0,24.0,-100.00,NW,309,2.0,6.0,80,0.00,,,0.00,34.000000,,2013-01-16 21:01:00,
2013-01-16 16:33:00,29.0,24.0,-100.00,NW,309,2.0,6.0,80,0.00,,,0.00,34.000000,,2013-01-16 21:33:00,
2013-01-16 16:43:00,29.0,24.0,-100.00,NW,309,2.0,6.0,80,0.00,,,0.00,34.000000,,2013-01-16 21:43:00,
2013-01-16 16:53:00,29.0,24.0,-100.00,NW,309,2.0,6.0,80,0.00,,,0.00,34.000000,,2013-01-16 21:53:00,
2013-01-16 17:01:00,28.0,23.0,-100.00,WNW,296,4.0,9.0,80,0.00,,,0.00,7.000000,,2013-01-16 22:01:00,
2013-01-16 17:23:00,28.0,23.0,-100.00,WNW,296,4.0,9.0,80,0.00,,,0.00,7.000000,,2013-01-16 22:23:00,
2013-01-16 17:33:00,28.0,23.0,-100.00,WNW,296,4.0,9.0,80,0.00,,,0.00,7.000000,,2013-01-16 22:33:00,
2013-01-16 17:43:00,28.0,23.0,-100.00,WNW,296,4.0,9.0,80,0.00,,,0.00,7.000000,,2013-01-16 22:43:00,
2013-01-16 17:53:00,28.0,23.0,-100.00,WNW,296,4.0,9.0,80,0.00,,,0.00,7.000000,,2013-01-16 22:53:00,
2013-01-16 18:01:00,26.0,22.0,-100.00,WSW,247,0.0,12.0,84,0.00,,,0.00,0.000000,,2013-01-16 23:01:00,
2013-01-16 18:33:00,26.0,22.0,-100.00,WSW,247,0.0,12.0,84,0.00,,,0.00,0.000000,,2013-01-16 23:33:00,
2013-01-16 18:43:00,26.0,22.0,-100.00,WSW,247,0.0,12.0,84,0.00,,,0.00,0.000000,,2013-01-16 23:43:00,
2013-01-16 18:53:00,26.0,22.0,-100.00,WSW,247,0.0,12.0,84,0.00,,,0.00,0.000000,,2013-01-16 23:53:00,
2013-01-16 19:01:00,28.0,24.0,-100.00,WSW,246,2.0,10.0,84,0.00,,,0.00,0.000000,,2013-01-17 00:01:00,
2013-01-16 19:33:00,28.0,24.0,-100.00,WSW,246,2.0,10.0,84,0.00,,,0.00,0.000000,,2013-01-17 00:33:00,
2013-01-16 19:42:00,28.0,24.0,-100.00,WSW,246,2.0,10.0,84,0.00,,,0.00,0.000000,,2013-01-17 00:42:00,
2013-01-16 19:53:00,28.0,24.0,-100.00,WSW,246,2.0,10.0,84,0.00,,,0.00,0.000000,,2013-01-17 00:53:00,
2013-01-16 20:01:00,27.0,22.0,-100.00,SW,226,2.0,8.0,80,0.00,,,0.00,0.000000,,2013-01-17 01:01:00,
2013-01-16 20:22:00,27.0,22.0,-100.00,SW,226,2.0,8.0,80,0.00,,,0.00,0.000000,,2013-01-17 01:22:00,
2013-01-16 20:33:00,27.0,22.0,-100.00,SW,226,2.0,8.0,80,0.00,,,0.00,0.000000,,2013-01-17 01:33:00,
2013-01-16 20:43:00,27.0,22.0,-100.00,SW,226,2.0,8.0,80,0.00,,,0.00,0.000000,,2013-01-17 01:43:00,
2013-01-16 20:53:00,27.0,22.0,-100.00,SW,226,2.0,8.0,80,0.00,,,0.00,0.000000,,2013-01-17 01:53:00,
2013-01-16 21:01:00,25.0,20.0,-100.00,WNW,288,4.0,10.0,81,0.00,,,0.00,0.000000,,2013-01-17 02:01:00,
2013-01-16 21:32:00,25.0,20.0,-100.00,WNW,288,4.0,10.0,81,0.00,,,0.00,0.000000,,2013-01-17 02:32:00,
2013-01-16 21:43:00,25.0,20.0,-100.00,WNW,288,4.0,10.0,81,0.00,,,0.00,0.000000,,2013-01-17 02:43:00,
2013-01-16 21:52:00,25.0,20.0,-100.00,WNW,288,4.0,10.0,81,0.00,,,0.00,0.000000,,2013-01-17 02:52:00,
2013-01-16 22:01:00,27.0,20.0,-100.00,WSW,244,3.0,16.0,75,0.00,,,-99.99,0.000000,,2013-01-17 03:01:00,
2013-01-16 22:33:00,27.0,20.0,-100.00,WSW,244,3.0,16.0,75,0.00,,,-99.99,0.000000,,2013-01-17 03:33:00,
2013-01-16 22:43:00,27.0,20.0,-100.00,WSW,244,3.0,16.0,75,0.00,,,-99.99,0.000000,,2013-01-17 03:43:00,
2013-01-16 22:53:00,27.0,20.0,-100.00,WSW,244,3.0,16.0,75,0.00,,,-99.99,0.000000,,2013-01-17 03:53:00,
2013-01-16 23:01:00,28.0,20.0,-100.00,WSW,242,5.0,13.0,72,0.00,,,0.00,0.000000,,2013-01-17 04:01:00,
2013-01-16 23:33:00,28.0,20.0,-100.00,WSW,242,5.0,13.0,72,0.00,,,0.00,0.000000,,2013-01-17 04:33:00,
2013-01-16 23:43:00,28.0,20.0,-100.00,WSW,242,5.0,13.0,72,0.00,,,0.00,0.000000,,2013-01-17 04:43:00,
2013-01-16 23:53:00,28.0,20.0,-100.00,WSW,242,5.0,13.0,72,0.00,,,0.00,0.000000,,2013-01-17 04:53:00,